Time;durP1;ratioP1;P1;durP2;ratioP2;P2;SDS_P1;SDS_P2;PMS_P1;PMS_P2;Temp;Humidity;BMP_temperature;BMP_pressure;BME280_temperature;BME280_humidity;BME280_pressure;Samples;Min_cycle;Max_cycle;Signal;HPM_P1;HPM_P2
2022/10/21 00:00:24;;;;;;;21.73;19.00;;;14.10;99.90;;;;;;6125476;23;20890;-86
2022/10/21 00:02:51;;;;;;;23.03;20.57;;;14.10;99.90;;;;;;6125747;23;20934;-86
2022/10/21 00:05:38;;;;;;;26.90;21.57;;;13.90;99.90;;;;;;6125664;23;20411;-86
2022/10/21 00:08:43;;;;;;;28.13;20.93;;;13.90;99.90;;;;;;6125113;23;20419;-86
2022/10/21 00:11:19;;;;;;;26.23;19.77;;;14.00;99.90;;;;;;6125435;23;20939;-86
2022/10/21 00:13:47;;;;;;;22.70;16.87;;;14.00;99.90;;;;;;6125272;23;20399;-87
2022/10/21 00:18:58;;;;;;;22.30;18.90;;;14.00;99.90;;;;;;6120191;23;20451;-86
2022/10/21 00:21:44;;;;;;;20.77;17.37;;;14.00;99.90;;;;;;6125021;23;20409;-86
2022/10/21 00:24:17;;;;;;;22.57;18.07;;;13.90;99.90;;;;;;6125220;23;20436;-86
2022/10/21 00:27:01;;;;;;;24.63;21.90;;;13.90;99.90;;;;;;6125074;23;20404;-86
2022/10/21 00:29:46;;;;;;;25.30;18.13;;;13.90;99.90;;;;;;6124364;23;20428;-86
2022/10/21 00:32:18;;;;;;;23.13;18.10;;;13.80;99.90;;;;;;6125495;23;20407;-87
2022/10/21 00:34:45;;;;;;;19.60;17.30;;;13.80;99.90;;;;;;6127109;23;20487;-86
2022/10/21 00:37:14;;;;;;;22.00;19.57;;;13.90;99.90;;;;;;6127173;23;20421;-87
2022/10/21 00:39:41;;;;;;;23.03;19.30;;;13.70;99.90;;;;;;6126616;23;20455;-87
2022/10/21 00:42:15;;;;;;;22.63;18.90;;;13.70;99.90;;;;;;6126867;23;20936;-86
2022/10/21 00:44:42;;;;;;;28.27;18.60;;;13.60;99.90;;;;;;6126962;23;20406;-86
2022/10/21 00:47:20;;;;;;;21.40;18.03;;;13.70;99.90;;;;;;6126688;23;20419;-86
2022/10/21 00:50:04;;;;;;;19.80;17.80;;;13.70;99.90;;;;;;6127010;23;20451;-86
2022/10/21 00:52:35;;;;;;;20.80;18.27;;;13.80;99.90;;;;;;6126355;23;20487;-86
2022/10/21 00:55:07;;;;;;;19.90;17.90;;;13.80;99.90;;;;;;6126711;23;20423;-86
2022/10/21 00:57:40;;;;;;;23.80;17.87;;;13.90;99.90;;;;;;6125832;23;20915;-87
2022/10/21 01:00:17;;;;;;;21.30;16.83;;;14.00;99.90;;;;;;6127139;23;20801;-86
2022/10/21 01:02:50;;;;;;;26.27;18.53;;;14.00;99.90;;;;;;6126506;23;20424;-86
2022/10/21 01:05:17;;;;;;;19.17;14.90;;;14.00;99.90;;;;;;6126937;23;20723;-86
2022/10/21 01:07:53;;;;;;;17.50;15.80;;;14.00;99.90;;;;;;6125745;23;20440;-86
2022/10/21 01:10:27;;;;;;;22.60;17.13;;;14.00;99.90;;;;;;6126698;23;20431;-86
2022/10/21 01:16:35;;;;;;;16.93;14.90;;;14.00;99.90;;;;;;6124310;23;20426;-86
2022/10/21 01:19:24;;;;;;;18.33;16.10;;;13.90;99.90;;;;;;6126014;23;20950;-87
2022/10/21 01:22:11;;;;;;;22.60;16.50;;;13.80;99.90;;;;;;6128198;23;20852;-86
2022/10/21 01:25:14;;;;;;;;;;;;;;;;;;;;;
2022/10/21 01:27:54;;;;;;;17.50;14.47;;;13.90;99.90;;;;;;6128749;23;21255;-86
2022/10/21 01:30:46;;;;;;;17.97;14.20;;;13.80;99.90;;;;;;6129015;23;20491;-86
2022/10/21 01:36:49;;;;;;;19.33;16.07;;;13.80;99.90;;;;;;6126269;23;20447;-86
2022/10/21 01:39:50;;;;;;;21.27;17.57;;;13.80;99.90;;;;;;6128278;23;20535;-86
2022/10/21 01:42:55;;;;;;;;;;;;;;;;;;;;;
2022/10/21 01:51:27;;;;;;;22.37;17.80;;;13.40;99.90;;;;;;6097345;23;20411;-86
2022/10/21 01:54:11;;;;;;;20.77;17.93;;;13.20;99.90;;;;;;6128501;23;20478;-86
2022/10/21 01:57:12;;;;;;;18.97;17.00;;;13.20;99.90;;;;;;6126407;23;20479;-86
2022/10/21 01:59:51;;;;;;;25.37;20.03;;;13.30;99.90;;;;;;6125838;23;20447;-86
2022/10/21 02:02:36;;;;;;;23.67;19.67;;;13.40;99.90;;;;;;6125896;23;20803;-86
2022/10/21 02:05:29;;;;;;;19.50;17.43;;;13.30;99.90;;;;;;6122352;23;20554;-86
2022/10/21 02:08:12;;;;;;;20.70;18.53;;;13.50;99.90;;;;;;6125574;23;20502;-86
2022/10/21 02:10:43;;;;;;;22.57;17.53;;;13.60;99.90;;;;;;6126437;23;20934;-86
2022/10/21 02:13:14;;;;;;;20.00;17.87;;;13.70;99.90;;;;;;6129008;23;20747;-84
2022/10/21 02:15:42;;;;;;;19.27;17.13;;;13.90;99.90;;;;;;6130965;23;21027;-84
2022/10/21 02:18:20;;;;;;;20.47;17.37;;;13.90;99.90;;;;;;6128844;23;20510;-84
2022/10/21 02:20:51;;;;;;;20.47;17.03;;;13.90;99.90;;;;;;6130767;23;20400;-84
2022/10/21 02:23:21;;;;;;;25.20;18.30;;;14.00;99.90;;;;;;6128182;23;20396;-85
2022/10/21 02:25:51;;;;;;;21.27;16.80;;;14.10;99.90;;;;;;6126794;23;20411;-86
2022/10/21 02:28:21;;;;;;;20.00;17.37;;;14.10;99.90;;;;;;6128274;23;20451;-85
2022/10/21 02:30:59;;;;;;;18.57;16.67;;;14.20;99.90;;;;;;6145383;23;20423;-86
2022/10/21 02:33:36;;;;;;;19.23;16.63;;;14.20;99.90;;;;;;6145682;23;20400;-85
2022/10/21 02:36:12;;;;;;;19.43;17.33;;;14.30;99.90;;;;;;6129545;23;20396;-85
2022/10/21 02:38:45;;;;;;;22.87;18.40;;;14.30;99.90;;;;;;6127085;23;20538;-86
2022/10/21 02:41:16;;;;;;;18.63;15.17;;;14.40;99.90;;;;;;6127746;23;20383;-86
2022/10/21 02:43:49;;;;;;;20.83;18.63;;;14.40;99.90;;;;;;6126675;23;20907;-86
2022/10/21 02:46:16;;;;;;;22.07;17.60;;;14.30;99.90;;;;;;6127372;23;20454;-87
2022/10/21 02:48:50;;;;;;;22.20;18.67;;;14.30;99.90;;;;;;6127374;23;20467;-86
2022/10/21 02:51:17;;;;;;;17.80;16.00;;;14.40;99.90;;;;;;6127703;23;20499;-86
2022/10/21 02:53:44;;;;;;;23.27;18.10;;;14.40;99.90;;;;;;6127909;23;21066;-86
2022/10/21 02:56:11;;;;;;;19.93;16.30;;;14.40;99.90;;;;;;6127458;23;20773;-86
2022/10/21 02:58:38;;;;;;;18.27;16.27;;;14.50;99.90;;;;;;6128061;23;20800;-85
2022/10/21 03:01:05;;;;;;;24.13;19.00;;;14.50;99.90;;;;;;6129157;23;20414;-86
2022/10/21 03:03:32;;;;;;;19.70;17.17;;;14.40;99.90;;;;;;6129492;23;20945;-86
2022/10/21 03:06:00;;;;;;;19.53;17.50;;;14.50;99.90;;;;;;6128712;23;20451;-86
2022/10/21 03:08:27;;;;;;;20.30;17.20;;;14.50;99.90;;;;;;6127531;23;20448;-86
2022/10/21 03:10:54;;;;;;;22.00;19.20;;;14.40;99.90;;;;;;6127288;23;20502;-86
2022/10/21 03:13:21;;;;;;;24.57;18.33;;;14.40;99.90;;;;;;6127684;23;20439;-86
2022/10/21 03:15:49;;;;;;;20.40;18.27;;;14.40;99.90;;;;;;6127420;23;20412;-86
2022/10/21 03:18:16;;;;;;;25.63;19.47;;;14.40;99.90;;;;;;6126871;23;20506;-86
2022/10/21 03:20:43;;;;;;;21.67;17.90;;;14.30;99.90;;;;;;6127633;23;20933;-86
2022/10/21 03:23:11;;;;;;;18.80;16.90;;;14.40;99.90;;;;;;6127951;23;20403;-86
2022/10/21 03:25:38;;;;;;;27.30;18.67;;;14.40;99.90;;;;;;6127957;23;20722;-86
2022/10/21 03:28:05;;;;;;;25.00;20.70;;;14.30;99.90;;;;;;6127868;23;20476;-86
2022/10/21 03:30:32;;;;;;;25.97;19.60;;;14.20;99.90;;;;;;6127113;23;20415;-86
2022/10/21 03:33:01;;;;;;;24.73;20.20;;;14.20;99.90;;;;;;6126829;23;20419;-86
2022/10/21 03:35:28;;;;;;;27.80;20.00;;;14.20;99.90;;;;;;6126800;23;20411;-86
2022/10/21 03:37:55;;;;;;;24.50;19.67;;;14.10;99.90;;;;;;6126756;23;20465;-86
2022/10/21 03:40:28;;;;;;;23.63;19.90;;;14.20;99.90;;;;;;6127251;23;20552;-86
2022/10/21 03:42:55;;;;;;;24.70;22.10;;;14.10;99.90;;;;;;6127379;23;20477;-86
2022/10/21 03:45:22;;;;;;;21.87;19.00;;;14.10;99.90;;;;;;6127671;23;20734;-86
2022/10/21 03:47:49;;;;;;;26.60;22.70;;;14.20;99.90;;;;;;6128451;23;20920;-86
2022/10/21 03:50:16;;;;;;;24.00;18.37;;;14.10;99.90;;;;;;6127901;23;20443;-86
2022/10/21 03:52:43;;;;;;;28.27;21.73;;;14.10;99.90;;;;;;6128068;23;20895;-86
2022/10/21 03:55:10;;;;;;;26.13;21.00;;;14.10;99.90;;;;;;6127968;23;20423;-86
2022/10/21 03:57:40;;;;;;;25.33;19.90;;;14.10;99.90;;;;;;6127522;23;21251;-86
2022/10/21 04:00:08;;;;;;;25.97;19.57;;;14.00;99.90;;;;;;6128013;23;20498;-86
2022/10/21 04:02:35;;;;;;;21.63;18.00;;;14.10;99.90;;;;;;6129636;23;20416;-86
2022/10/21 04:05:02;;;;;;;20.30;17.17;;;14.20;99.90;;;;;;6128835;23;20416;-86
2022/10/21 04:07:28;;;;;;;21.57;17.07;;;14.20;99.90;;;;;;6128975;23;20418;-86
2022/10/21 04:09:55;;;;;;;20.83;18.70;;;14.30;99.90;;;;;;6130254;23;20407;-86
2022/10/21 04:12:23;;;;;;;19.50;15.80;;;14.40;99.90;;;;;;6130980;23;20428;-86
2022/10/21 04:14:51;;;;;;;19.03;17.20;;;14.40;99.90;;;;;;6130837;23;20423;-86
2022/10/21 04:17:18;;;;;;;19.80;14.87;;;14.50;99.90;;;;;;6129853;23;20981;-86
2022/10/21 04:19:45;;;;;;;19.10;14.20;;;14.50;99.90;;;;;;6129609;23;20455;-86
2022/10/21 04:22:12;;;;;;;21.77;18.47;;;14.60;99.90;;;;;;6128769;23;20420;-86
2022/10/21 04:24:39;;;;;;;21.07;16.20;;;14.60;99.90;;;;;;6129604;23;20725;-86
2022/10/21 04:27:07;;;;;;;17.23;14.70;;;14.60;99.90;;;;;;6128871;23;20962;-86
2022/10/21 04:29:34;;;;;;;18.40;15.77;;;14.60;99.90;;;;;;6128124;23;20442;-86
2022/10/21 04:32:02;;;;;;;16.83;15.03;;;14.60;99.90;;;;;;6128029;23;21107;-86
2022/10/21 04:34:37;;;;;;;18.93;15.80;;;14.60;99.90;;;;;;6129036;23;20414;-86
2022/10/21 04:37:04;;;;;;;17.97;15.13;;;14.60;99.90;;;;;;6127611;23;20396;-86
2022/10/21 04:39:33;;;;;;;17.83;15.67;;;14.60;99.90;;;;;;6127478;23;20452;-86
2022/10/21 04:42:01;;;;;;;15.90;14.03;;;14.60;99.90;;;;;;6127685;23;20420;-86
2022/10/21 04:44:29;;;;;;;20.03;16.00;;;14.60;99.90;;;;;;6127241;23;20443;-86
2022/10/21 04:46:56;;;;;;;18.03;16.10;;;14.60;99.90;;;;;;6127297;23;20400;-86
2022/10/21 04:49:35;;;;;;;20.57;15.30;;;14.60;99.90;;;;;;6127088;23;20927;-86
2022/10/21 04:52:04;;;;;;;16.37;14.77;;;14.60;99.90;;;;;;6126971;23;20482;-87
2022/10/21 04:54:35;;;;;;;14.73;12.97;;;14.60;99.90;;;;;;6127698;23;20448;-86
2022/10/21 04:57:03;;;;;;;14.53;13.13;;;14.60;99.90;;;;;;6127994;23;20919;-85
2022/10/21 04:59:32;;;;;;;14.43;12.93;;;14.60;99.90;;;;;;6127189;23;20451;-86
2022/10/21 05:01:59;;;;;;;11.23;10.13;;;14.70;99.90;;;;;;6132555;23;20411;-86
2022/10/21 05:04:27;;;;;;;12.90;9.50;;;14.60;99.90;;;;;;6136517;23;20410;-86
2022/10/21 05:06:54;;;;;;;12.30;11.00;;;14.60;99.90;;;;;;6138457;23;20436;-85
2022/10/21 05:09:20;;;;;;;15.20;10.53;;;14.60;99.90;;;;;;6139781;23;20453;-86
2022/10/21 05:11:47;;;;;;;13.90;9.97;;;14.70;99.90;;;;;;6139913;23;20408;-85
2022/10/21 05:14:14;;;;;;;10.70;8.20;;;14.70;99.90;;;;;;6136642;23;20414;-86
2022/10/21 05:16:41;;;;;;;11.70;9.40;;;14.70;99.90;;;;;;6134318;23;20440;-85
2022/10/21 05:19:08;;;;;;;9.83;6.40;;;14.70;99.90;;;;;;6133402;23;20658;-86
2022/10/21 05:21:36;;;;;;;15.87;8.00;;;14.70;99.90;;;;;;6135546;23;20491;-86
2022/10/21 05:24:03;;;;;;;12.00;7.43;;;14.90;99.90;;;;;;6136232;23;20485;-86
2022/10/21 05:26:30;;;;;;;9.03;8.17;;;14.90;99.90;;;;;;6136895;23;20416;-85
2022/10/21 05:28:57;;;;;;;8.60;6.43;;;14.90;99.90;;;;;;6144268;23;20454;-83
2022/10/21 05:31:23;;;;;;;8.87;6.50;;;14.90;99.90;;;;;;6160152;23;20746;-83
2022/10/21 05:33:50;;;;;;;9.70;5.60;;;15.10;99.90;;;;;;6160019;23;20412;-83
2022/10/21 05:36:17;;;;;;;11.30;5.60;;;15.10;99.90;;;;;;6159315;23;20415;-83
2022/10/21 05:38:45;;;;;;;12.37;5.63;;;15.20;99.90;;;;;;6160056;23;20939;-83
2022/10/21 05:41:12;;;;;;;6.93;5.07;;;15.20;99.90;;;;;;6159718;23;20446;-82
2022/10/21 05:43:39;;;;;;;6.73;5.47;;;15.10;99.90;;;;;;6159930;23;20415;-83
2022/10/21 05:46:07;;;;;;;8.97;5.60;;;15.10;99.90;;;;;;6159669;23;20411;-83
2022/10/21 05:48:34;;;;;;;8.70;5.37;;;15.10;99.90;;;;;;6159065;23;20460;-82
2022/10/21 05:51:01;;;;;;;9.43;5.93;;;15.20;99.90;;;;;;6159802;23;21147;-82
2022/10/21 05:53:27;;;;;;;9.20;6.57;;;15.20;99.90;;;;;;6160087;23;20437;-83
2022/10/21 05:55:56;;;;;;;14.97;6.00;;;15.30;99.90;;;;;;6160180;23;20418;-83
2022/10/21 05:58:24;;;;;;;17.17;7.13;;;15.30;99.90;;;;;;6158441;23;20921;-82
2022/10/21 06:00:53;;;;;;;9.50;5.87;;;15.40;99.90;;;;;;6159340;23;20421;-81
2022/10/21 06:03:20;;;;;;;9.33;5.90;;;15.30;99.90;;;;;;6158059;23;20415;-82
2022/10/21 06:05:47;;;;;;;6.57;5.13;;;15.30;99.90;;;;;;6160254;23;20434;-82
2022/10/21 06:08:13;;;;;;;11.43;5.57;;;15.20;99.90;;;;;;6159727;23;20756;-82
2022/10/21 06:10:40;;;;;;;10.13;5.77;;;15.30;99.90;;;;;;6166658;23;20450;-82
2022/10/21 06:13:08;;;;;;;12.77;6.43;;;15.30;99.90;;;;;;6160979;23;20948;-82
2022/10/21 06:15:36;;;;;;;14.10;8.07;;;15.40;99.90;;;;;;6159403;23;20739;-82
2022/10/21 06:18:03;;;;;;;8.30;6.10;;;15.50;99.90;;;;;;6159352;23;20411;-82
2022/10/21 06:20:30;;;;;;;6.73;5.90;;;15.50;99.90;;;;;;6159143;23;20416;-83
2022/10/21 06:22:59;;;;;;;8.50;6.13;;;15.50;99.90;;;;;;6161367;23;20393;-83
2022/10/21 06:25:26;;;;;;;11.77;8.17;;;15.60;99.90;;;;;;6154801;23;20395;-83
2022/10/21 06:27:53;;;;;;;10.43;6.10;;;15.60;99.90;;;;;;6155717;23;20403;-83
2022/10/21 06:30:21;;;;;;;10.83;7.10;;;15.60;99.90;;;;;;6165828;23;20455;-83
2022/10/21 06:32:48;;;;;;;11.43;6.70;;;15.70;99.90;;;;;;6170474;23;20935;-85
2022/10/21 06:35:15;;;;;;;13.37;6.87;;;15.70;99.90;;;;;;6166027;23;20410;-84
2022/10/21 06:37:42;;;;;;;10.97;7.37;;;15.70;99.90;;;;;;6163606;23;20495;-86
2022/10/21 06:40:09;;;;;;;11.00;9.03;;;15.70;99.90;;;;;;6160181;23;20754;-85
2022/10/21 06:42:36;;;;;;;9.17;7.80;;;15.70;99.90;;;;;;6161918;23;20431;-83
2022/10/21 06:45:03;;;;;;;8.37;6.70;;;15.80;99.90;;;;;;6159235;23;20413;-85
2022/10/21 06:47:31;;;;;;;7.47;5.53;;;15.80;99.90;;;;;;6159519;23;20405;-81
2022/10/21 06:50:01;;;;;;;9.63;6.00;;;15.80;99.90;;;;;;6161287;23;20455;-84
2022/10/21 06:52:37;;;;;;;8.43;5.77;;;15.80;99.90;;;;;;6162635;23;20405;-83
2022/10/21 06:55:04;;;;;;;11.70;6.70;;;15.80;99.90;;;;;;6168204;23;20462;-83
2022/10/21 06:57:31;;;;;;;11.33;6.67;;;15.70;99.90;;;;;;6162301;23;20892;-84
2022/10/21 06:59:58;;;;;;;12.73;6.27;;;15.70;99.90;;;;;;6162893;23;20437;-84
2022/10/21 07:02:25;;;;;;;6.80;6.10;;;15.60;99.90;;;;;;6163991;23;20414;-82
2022/10/21 07:04:53;;;;;;;9.30;7.00;;;15.60;99.90;;;;;;6163473;23;20407;-83
2022/10/21 07:07:20;;;;;;;9.13;6.57;;;15.60;99.90;;;;;;6165435;23;20413;-83
2022/10/21 07:15:33;;;;;;;8.73;6.83;;;15.70;99.90;;;;;;6129792;23;20466;-83
2022/10/21 07:42:02;;;;;;;14.07;8.77;;;15.90;99.90;;;;;;6090148;23;20410;-82
2022/10/21 07:51:59;;;;;;;11.40;7.90;;;16.00;99.90;;;;;;5932419;24;20603;-82
2022/10/21 07:55:24;;;;;;;;;;;;;;;;;;;;;
2022/10/21 07:58:27;;;;;;;8.80;7.90;;;16.10;99.90;;;;;;6104641;23;20436;-82
2022/10/21 08:01:26;;;;;;;;;;;;;;;;;;;;;
2022/10/21 08:04:14;;;;;;;12.83;8.80;;;16.00;99.90;;;;;;6103500;23;20466;-82
2022/10/21 08:13:40;;;;;;;9.93;7.10;;;16.00;99.90;;;;;;6062860;23;20417;-82
2022/10/21 08:16:35;;;;;;;8.53;6.57;;;15.90;99.90;;;;;;6091988;23;20475;-82
2022/10/21 08:19:24;;;;;;;10.80;7.23;;;15.90;99.90;;;;;;6102885;23;20432;-82
2022/10/21 08:28:44;;;;;;;15.63;7.87;;;15.90;99.90;;;;;;6104500;23;20422;-82
2022/10/21 08:31:30;;;;;;;9.53;8.33;;;16.00;99.90;;;;;;6105216;23;20470;-81
2022/10/21 08:37:54;;;;;;;14.77;8.57;;;16.20;99.90;;;;;;6103983;23;20460;-82
2022/10/21 08:49:53;;;;;;;12.83;8.30;;;16.30;99.90;;;;;;6098712;23;20426;-82
2022/10/21 08:52:43;;;;;;;13.13;8.27;;;16.30;99.90;;;;;;6105024;23;20445;-82
2022/10/21 08:55:53;;;;;;;10.93;9.87;;;16.40;99.90;;;;;;6103998;23;20416;-82
2022/10/21 08:58:35;;;;;;;14.70;9.17;;;16.30;99.90;;;;;;6107745;23;20740;-82
2022/10/21 09:01:23;;;;;;;13.63;9.33;;;16.30;99.90;;;;;;6105281;23;20390;-82
2022/10/21 09:03:56;;;;;;;15.17;9.80;;;16.00;99.90;;;;;;6103659;23;20426;-82
2022/10/21 09:06:33;;;;;;;13.10;10.30;;;16.00;99.90;;;;;;6104470;23;20399;-82
2022/10/21 09:09:31;;;;;;;10.10;8.50;;;16.10;99.90;;;;;;6104227;23;20440;-82
2022/10/21 09:12:36;;;;;;;9.40;8.10;;;16.20;99.90;;;;;;6097825;23;20963;-82
2022/10/21 09:15:37;;;;;;;10.90;9.80;;;16.10;99.90;;;;;;6101687;23;20434;-82
2022/10/21 09:18:42;;;;;;;9.27;7.00;;;16.10;99.90;;;;;;6100015;23;20516;-82
2022/10/21 09:21:52;;;;;;;9.57;6.70;;;16.20;99.90;;;;;;6103649;23;20410;-82
2022/10/21 09:27:43;;;;;;;8.43;4.27;;;16.10;99.90;;;;;;6079456;23;20482;-82
2022/10/21 09:30:31;;;;;;;7.30;4.90;;;16.10;99.90;;;;;;6103863;23;20432;-81
2022/10/21 09:36:46;;;;;;;5.10;3.07;;;16.00;99.90;;;;;;6066867;23;20397;-82
2022/10/21 09:39:48;;;;;;;5.30;3.50;;;16.00;99.90;;;;;;6098660;23;20515;-82
2022/10/21 09:42:31;;;;;;;7.90;3.67;;;16.10;99.90;;;;;;6103610;23;20405;-82
2022/10/21 09:45:08;;;;;;;6.03;3.43;;;16.00;99.90;;;;;;6103832;23;20454;-81
2022/10/21 09:47:34;;;;;;;7.63;3.40;;;16.00;99.90;;;;;;6103401;23;20460;-82
2022/10/21 09:50:14;;;;;;;5.47;3.07;;;16.10;99.90;;;;;;6103932;23;20516;-82
2022/10/21 09:53:07;;;;;;;6.00;3.70;;;16.20;99.90;;;;;;6110940;23;20437;-82
2022/10/21 09:55:38;;;;;;;6.90;3.30;;;16.10;99.90;;;;;;6104281;23;20402;-82
2022/10/21 09:58:07;;;;;;;6.20;2.97;;;16.10;99.90;;;;;;6102817;23;20421;-82
2022/10/21 10:00:47;;;;;;;5.70;3.13;;;16.10;99.90;;;;;;6104136;23;20718;-82
2022/10/21 10:03:46;;;;;;;4.70;3.33;;;16.10;99.90;;;;;;6103511;23;20460;-81
2022/10/21 10:06:29;;;;;;;6.13;3.90;;;16.20;99.90;;;;;;6089258;23;20424;-84
2022/10/21 10:09:15;;;;;;;5.17;3.83;;;16.20;99.90;;;;;;6102167;23;20432;-82
2022/10/21 10:11:52;;;;;;;3.20;2.90;;;16.40;99.90;;;;;;6103183;23;20835;-82
2022/10/21 10:14:31;;;;;;;4.30;2.70;;;16.30;99.90;;;;;;6103493;23;20401;-80
2022/10/21 10:17:18;;;;;;;3.33;2.63;;;16.30;99.90;;;;;;6104055;23;20473;-81
2022/10/21 10:20:16;;;;;;;4.43;3.27;;;16.40;99.90;;;;;;6102211;23;20838;-81
2022/10/21 10:22:46;;;;;;;2.93;2.67;;;16.50;99.90;;;;;;6102399;23;20425;-81
2022/10/21 10:25:22;;;;;;;3.93;2.80;;;16.40;99.90;;;;;;6103583;23;20398;-81
2022/10/21 10:27:53;;;;;;;4.30;3.30;;;16.60;99.90;;;;;;6102683;23;20424;-81
2022/10/21 10:30:21;;;;;;;5.27;4.20;;;16.50;99.90;;;;;;6105121;23;20545;-85
2022/10/21 10:32:51;;;;;;;4.07;2.73;;;16.40;99.90;;;;;;6105680;23;20453;-84
2022/10/21 10:35:28;;;;;;;4.23;3.20;;;16.60;99.90;;;;;;6107439;23;20990;-84
2022/10/21 10:37:57;;;;;;;6.93;4.40;;;16.50;99.90;;;;;;6108536;23;20407;-83
2022/10/21 10:40:26;;;;;;;5.23;2.83;;;16.60;99.90;;;;;;6109060;23;20424;-84
2022/10/21 10:43:01;;;;;;;5.40;4.67;;;16.50;99.90;;;;;;6109512;23;20451;-85
2022/10/21 10:45:28;;;;;;;4.10;2.90;;;16.50;99.90;;;;;;6109722;23;20393;-82
2022/10/21 10:47:57;;;;;;;4.67;2.93;;;16.50;99.90;;;;;;6112449;23;20482;-85
2022/10/21 10:50:43;;;;;;;3.73;3.40;;;16.60;99.90;;;;;;6107042;23;20408;-82
2022/10/21 10:53:23;;;;;;;7.00;3.93;;;16.60;99.90;;;;;;6106558;23;20413;-85
2022/10/21 10:55:55;;;;;;;5.73;3.60;;;16.60;99.90;;;;;;6107657;23;20795;-83
2022/10/21 11:01:21;;;;;;;4.57;4.27;;;16.70;99.90;;;;;;6106931;23;20793;-84
2022/10/21 11:03:53;;;;;;;4.27;3.87;;;16.80;99.90;;;;;;6108011;23;20948;-85
2022/10/21 11:06:34;;;;;;;4.43;3.97;;;16.80;99.90;;;;;;6102887;23;20391;-84
2022/10/21 11:09:02;;;;;;;6.73;4.17;;;16.80;99.90;;;;;;6102813;23;20435;-83
2022/10/21 11:11:34;;;;;;;6.07;4.20;;;17.00;99.90;;;;;;6106543;23;20549;-85
2022/10/21 11:14:02;;;;;;;3.37;3.07;;;17.00;99.90;;;;;;6104586;23;20485;-85
2022/10/21 11:16:42;;;;;;;5.50;3.27;;;17.00;99.90;;;;;;6103816;23;20413;-85
2022/10/21 11:19:17;;;;;;;5.07;3.73;;;17.20;99.90;;;;;;6101352;23;20754;-84
2022/10/21 11:21:51;;;;;;;4.67;2.80;;;17.30;99.90;;;;;;6102112;23;20402;-84
2022/10/21 11:24:40;;;;;;;4.33;3.17;;;17.50;99.90;;;;;;6100875;23;20400;-83
2022/10/21 11:27:16;;;;;;;6.20;3.47;;;17.70;99.90;;;;;;6100991;23;20501;-84
2022/10/21 11:29:54;;;;;;;4.67;4.27;;;17.80;99.90;;;;;;6099579;23;20430;-84
2022/10/21 11:32:30;;;;;;;4.07;2.97;;;18.00;99.90;;;;;;6102299;23;20495;-85
2022/10/21 11:35:11;;;;;;;4.70;3.03;;;18.10;99.90;;;;;;6102726;23;20410;-85
2022/10/21 11:37:54;;;;;;;4.37;2.77;;;18.10;99.90;;;;;;6102854;23;20895;-85
2022/10/21 11:40:31;;;;;;;3.27;2.63;;;18.20;99.90;;;;;;6105174;23;20460;-83
2022/10/21 11:43:06;;;;;;;3.30;2.37;;;18.40;99.90;;;;;;6108811;23;20691;-83
2022/10/21 11:45:54;;;;;;;2.60;2.50;;;18.40;99.90;;;;;;6104278;23;20795;-85
2022/10/21 11:48:42;;;;;;;4.33;2.30;;;18.60;99.90;;;;;;6105503;23;20511;-84
2022/10/21 11:51:20;;;;;;;2.70;2.43;;;18.70;99.90;;;;;;6105377;23;20499;-84
2022/10/21 11:53:59;;;;;;;2.30;1.60;;;18.70;99.90;;;;;;6106292;23;20428;-84
2022/10/21 11:56:37;;;;;;;2.30;1.70;;;18.60;99.90;;;;;;6105877;23;20399;-85
2022/10/21 11:59:19;;;;;;;1.50;1.40;;;18.50;99.90;;;;;;6104590;23;20436;-85
2022/10/21 12:01:56;;;;;;;3.90;1.60;;;18.50;99.90;;;;;;6105785;23;20510;-84
2022/10/21 12:04:34;;;;;;;1.50;1.40;;;18.30;99.90;;;;;;6103938;23;20396;-85
2022/10/21 12:07:12;;;;;;;4.23;1.77;;;18.30;99.90;;;;;;6103602;23;20408;-85
2022/10/21 12:09:43;;;;;;;2.47;1.70;;;18.20;99.90;;;;;;6103135;23;20431;-84
2022/10/21 12:12:48;;;;;;;1.20;1.10;;;18.00;99.90;;;;;;6106745;23;20440;-85
2022/10/21 12:15:20;;;;;;;2.23;1.50;;;18.00;99.90;;;;;;6099981;23;20420;-86
2022/10/21 12:18:00;;;;;;;2.07;1.20;;;17.80;99.90;;;;;;6103079;23;20483;-86
2022/10/21 12:37:22;;;;;;;0.50;0.50;;;17.40;99.90;;;;;;5794418;24;20436;-82
2022/10/21 12:40:08;;;;;;;1.27;1.17;;;17.40;99.90;;;;;;5975859;23;20444;-85
2022/10/21 13:04:57;;;;;;;1.93;1.77;;;17.40;99.90;;;;;;6089439;23;20463;-81
2022/10/21 13:07:36;;;;;;;2.37;2.00;;;17.50;99.90;;;;;;6094819;23;20439;-81
2022/10/21 13:10:26;;;;;;;4.23;2.10;;;17.60;99.90;;;;;;6188892;23;20425;-80
2022/10/21 13:13:30;;;;;;;2.87;2.03;;;17.50;99.90;;;;;;6192185;23;20760;-80
2022/10/21 13:15:58;;;;;;;4.40;1.87;;;17.40;99.90;;;;;;6190796;23;20761;-83
2022/10/21 13:18:57;;;;;;;2.53;1.60;;;17.40;99.90;;;;;;6190403;23;20787;-83
2022/10/21 13:21:40;;;;;;;2.00;1.90;;;17.40;99.90;;;;;;6191135;23;20424;-82
2022/10/21 13:24:22;;;;;;;2.50;1.70;;;17.50;99.90;;;;;;6186808;23;20416;-82
2022/10/21 13:26:51;;;;;;;1.93;1.73;;;17.40;99.90;;;;;;6190670;23;20394;-80
2022/10/21 13:29:27;;;;;;;2.03;1.80;;;17.30;99.90;;;;;;6190710;23;20432;-82
2022/10/21 13:32:31;;;;;;;1.50;1.40;;;17.30;99.90;;;;;;6195885;23;20439;-80
2022/10/21 13:35:23;;;;;;;2.27;1.77;;;17.40;99.90;;;;;;6070955;23;20482;-82
2022/10/21 13:37:55;;;;;;;2.10;1.50;;;17.20;99.90;;;;;;6069911;23;20427;-81
2022/10/21 13:40:26;;;;;;;1.73;1.60;;;17.00;99.90;;;;;;6151323;23;20919;-82
2022/10/21 13:42:57;;;;;;;1.53;1.37;;;17.00;99.90;;;;;;6190156;23;20383;-82
2022/10/21 13:45:29;;;;;;;1.63;1.50;;;17.00;99.90;;;;;;6190220;23;20393;-82
2022/10/21 13:48:01;;;;;;;7.07;1.63;;;16.90;99.90;;;;;;6189822;23;20391;-82
2022/10/21 13:50:30;;;;;;;1.47;1.27;;;16.90;99.90;;;;;;6190563;23;20403;-82
2022/10/21 13:52:58;;;;;;;2.83;1.10;;;16.80;99.90;;;;;;6190551;23;20446;-82
2022/10/21 13:55:26;;;;;;;1.00;1.00;;;16.70;99.90;;;;;;6190115;23;20809;-82
2022/10/21 13:57:55;;;;;;;1.17;1.07;;;16.50;99.90;;;;;;6189609;23;20411;-82
2022/10/21 14:00:23;;;;;;;1.00;1.00;;;16.60;99.90;;;;;;6190618;23;20493;-82
2022/10/21 14:02:54;;;;;;;2.03;1.50;;;16.40;99.90;;;;;;6190534;23;20736;-82
2022/10/21 14:05:35;;;;;;;1.10;0.97;;;16.40;99.90;;;;;;6189570;23;20418;-82
2022/10/21 14:08:03;;;;;;;1.20;1.10;;;16.40;99.90;;;;;;6189435;23;20401;-82
2022/10/21 14:10:30;;;;;;;1.60;1.30;;;16.50;99.90;;;;;;6190193;23;20415;-82
2022/10/21 14:12:59;;;;;;;2.57;1.23;;;16.50;99.90;;;;;;6190667;23;20453;-81
2022/10/21 14:15:35;;;;;;;1.30;1.20;;;16.40;99.90;;;;;;6189959;23;20414;-82
2022/10/21 14:18:04;;;;;;;1.80;1.70;;;16.50;99.90;;;;;;6189981;23;20390;-80
2022/10/21 14:20:33;;;;;;;3.33;1.07;;;16.40;99.90;;;;;;6189762;23;20418;-80
2022/10/21 14:23:01;;;;;;;1.77;1.23;;;16.40;99.90;;;;;;6189150;23;20409;-80
2022/10/21 14:25:29;;;;;;;1.50;1.30;;;16.30;99.90;;;;;;6190353;23;20498;-80
2022/10/21 14:27:57;;;;;;;3.17;1.57;;;16.20;99.90;;;;;;6194590;23;20481;-79
2022/10/21 14:30:27;;;;;;;1.30;1.20;;;16.20;99.90;;;;;;6190839;23;20409;-80
2022/10/21 14:32:56;;;;;;;1.60;1.10;;;16.30;99.90;;;;;;6190731;23;20473;-80
2022/10/21 14:35:30;;;;;;;1.43;1.37;;;16.30;99.90;;;;;;6190570;23;20478;-81
2022/10/21 14:37:59;;;;;;;4.00;1.40;;;16.30;99.90;;;;;;6194559;23;20395;-79
2022/10/21 14:40:30;;;;;;;1.30;1.20;;;16.30;99.90;;;;;;6205378;23;20859;-81
2022/10/21 14:42:59;;;;;;;2.20;1.40;;;16.30;99.90;;;;;;6202228;23;20391;-79
2022/10/21 14:45:28;;;;;;;1.00;1.00;;;16.30;99.90;;;;;;6192282;23;21063;-81
2022/10/21 14:48:07;;;;;;;0.97;0.97;;;16.30;99.90;;;;;;6191077;23;20410;-81
2022/10/21 14:50:37;;;;;;;0.80;0.80;;;16.30;99.90;;;;;;6190124;23;20846;-81
2022/10/21 14:53:12;;;;;;;1.13;1.13;;;16.30;99.90;;;;;;6163627;23;20450;-81
2022/10/21 14:55:39;;;;;;;2.57;1.30;;;16.20;99.90;;;;;;6190162;23;20398;-81
2022/10/21 14:58:10;;;;;;;1.33;1.23;;;16.10;99.90;;;;;;6189390;23;20940;-81
2022/10/21 15:00:40;;;;;;;2.73;1.13;;;16.10;99.90;;;;;;6190070;23;20395;-80
2022/10/21 15:03:08;;;;;;;1.50;1.00;;;16.10;99.90;;;;;;6190522;23;20758;-80
2022/10/21 15:05:39;;;;;;;2.77;1.17;;;16.20;99.90;;;;;;6190041;23;20970;-81
2022/10/21 15:08:30;;;;;;;1.37;1.30;;;16.20;99.90;;;;;;6190174;23;20410;-81
2022/10/21 15:11:35;;;;;;;1.90;1.20;;;16.20;99.90;;;;;;6190052;23;20793;-80
2022/10/21 15:14:22;;;;;;;1.37;1.07;;;16.20;99.90;;;;;;6128899;23;20483;-81
2022/10/21 15:16:52;;;;;;;2.03;1.20;;;16.20;99.90;;;;;;6189505;23;20725;-81
2022/10/21 15:19:22;;;;;;;3.17;1.30;;;16.20;99.90;;;;;;6189947;23;20430;-80
2022/10/21 15:21:53;;;;;;;2.70;1.50;;;16.10;99.90;;;;;;6198034;23;20405;-80
2022/10/21 15:24:24;;;;;;;0.80;0.77;;;16.10;99.90;;;;;;6193708;23;20395;-80
2022/10/21 15:26:53;;;;;;;0.80;0.80;;;16.10;99.90;;;;;;6190979;23;20429;-82
2022/10/21 15:29:26;;;;;;;2.10;1.30;;;16.00;99.90;;;;;;6189471;23;20434;-84